Time;durP1;ratioP1;P1;durP2;ratioP2;P2;SDS_P1;SDS_P2;PMS_P1;PMS_P2;Temp;Humidity;BMP_temperature;BMP_pressure;BME280_temperature;BME280_humidity;BME280_pressure;Samples;Min_cycle;Max_cycle;Signal;HPM_P1;HPM_P2
2023/06/17 00:00:24;;;;;;;13.57;12.02;;;12.30;95.60;;;;;;5068375;28;20029;-51
2023/06/17 00:02:51;;;;;;;15.15;12.02;;;12.30;95.50;;;;;;5072607;28;20112;-55
2023/06/17 00:05:17;;;;;;;14.20;11.80;;;12.20;95.20;;;;;;5072030;28;20422;-52
2023/06/17 00:07:43;;;;;;;18.67;12.52;;;12.20;95.10;;;;;;5074072;28;20024;-51
2023/06/17 00:10:10;;;;;;;12.80;11.43;;;12.10;94.70;;;;;;5073793;28;20032;-51
2023/06/17 00:12:36;;;;;;;13.13;11.68;;;12.00;95.60;;;;;;5074125;28;20029;-53
2023/06/17 00:15:04;;;;;;;17.65;11.77;;;11.90;95.60;;;;;;5074086;28;20060;-56
2023/06/17 00:17:30;;;;;;;17.27;11.50;;;11.90;95.80;;;;;;5065144;28;20039;-52
2023/06/17 00:19:57;;;;;;;12.45;10.57;;;11.80;95.60;;;;;;5055166;28;20376;-54
2023/06/17 00:22:25;;;;;;;16.42;12.00;;;11.80;96.00;;;;;;5053715;28;20033;-52
2023/06/17 00:24:51;;;;;;;12.73;10.60;;;11.70;96.30;;;;;;5054944;28;20027;-54
2023/06/17 00:27:17;;;;;;;11.98;10.70;;;11.70;96.10;;;;;;5064726;28;20017;-51
2023/06/17 00:29:43;;;;;;;17.92;11.77;;;11.70;96.40;;;;;;5053832;28;20017;-54
2023/06/17 00:32:09;;;;;;;12.63;10.63;;;11.50;95.10;;;;;;5067904;28;20499;-51
2023/06/17 00:34:34;;;;;;;12.52;10.02;;;11.50;95.40;;;;;;5073776;28;20016;-53
2023/06/17 00:37:00;;;;;;;15.27;10.55;;;11.40;95.30;;;;;;5073924;28;20437;-53
2023/06/17 00:39:26;;;;;;;14.55;10.20;;;11.40;95.00;;;;;;5073683;28;20032;-52
2023/06/17 00:41:51;;;;;;;11.30;9.88;;;11.40;95.10;;;;;;5073617;28;20033;-53
2023/06/17 00:44:17;;;;;;;10.77;9.70;;;11.30;94.10;;;;;;5059547;28;20107;-55
2023/06/17 00:46:52;;;;;;;12.13;9.63;;;11.30;93.90;;;;;;5053545;28;20029;-53
2023/06/17 00:49:19;;;;;;;11.02;9.45;;;11.20;93.20;;;;;;5053414;28;20357;-51
2023/06/17 00:51:45;;;;;;;13.40;9.13;;;11.20;93.80;;;;;;5053428;28;20423;-53
2023/06/17 00:54:12;;;;;;;13.95;9.60;;;11.10;92.70;;;;;;5053335;28;20049;-52
2023/06/17 00:56:40;;;;;;;12.95;9.57;;;11.00;92.90;;;;;;5053322;28;20024;-55
2023/06/17 00:59:07;;;;;;;13.52;10.43;;;11.00;92.70;;;;;;5053171;28;20025;-52
2023/06/17 01:01:35;;;;;;;17.48;9.43;;;11.00;93.30;;;;;;5053280;28;20021;-54
2023/06/17 01:04:02;;;;;;;17.48;9.20;;;10.90;93.40;;;;;;5053152;28;20106;-55
2023/06/17 01:07:09;;;;;;;10.25;9.15;;;10.80;92.20;;;;;;5058977;28;20029;-54
2023/06/17 01:09:41;;;;;;;19.92;8.60;;;10.80;91.50;;;;;;5072149;28;20040;-54
2023/06/17 01:12:08;;;;;;;11.07;8.15;;;10.70;90.20;;;;;;5072878;28;20081;-54
2023/06/17 01:14:35;;;;;;;9.70;8.68;;;10.70;90.30;;;;;;5053856;28;20036;-51
2023/06/17 01:17:03;;;;;;;11.70;8.43;;;10.60;90.50;;;;;;5052974;28;20047;-55
2023/06/17 01:19:29;;;;;;;12.70;9.15;;;10.60;90.80;;;;;;5052852;28;20409;-54
2023/06/17 01:21:56;;;;;;;13.65;8.73;;;10.50;88.80;;;;;;5052828;28;20067;-51
2023/06/17 01:24:30;;;;;;;10.43;8.73;;;10.50;91.70;;;;;;5054812;28;20040;-51
2023/06/17 01:26:59;;;;;;;9.85;8.60;;;10.50;91.50;;;;;;5071480;28;20029;-52
2023/06/17 01:29:29;;;;;;;10.13;8.35;;;10.50;92.10;;;;;;5072127;28;20024;-51
2023/06/17 01:31:57;;;;;;;14.93;7.85;;;10.50;92.00;;;;;;5066385;28;20083;-54
2023/06/17 01:34:33;;;;;;;10.48;8.32;;;10.50;90.80;;;;;;5063891;28;20043;-53
2023/06/17 01:37:03;;;;;;;10.68;9.52;;;10.50;90.00;;;;;;5070629;28;20032;-55
2023/06/17 01:39:32;;;;;;;14.77;8.52;;;10.50;91.00;;;;;;5053015;28;20482;-56
2023/06/17 01:42:00;;;;;;;10.50;9.38;;;10.40;91.80;;;;;;5063659;28;20051;-55
2023/06/17 01:44:27;;;;;;;11.15;8.60;;;10.50;93.20;;;;;;5071208;28;20376;-54
2023/06/17 01:46:52;;;;;;;21.80;9.63;;;10.50;93.20;;;;;;5071679;28;20017;-51
2023/06/17 01:49:18;;;;;;;19.65;9.95;;;10.60;93.50;;;;;;5072107;28;20360;-55
2023/06/17 01:51:44;;;;;;;14.30;10.30;;;10.60;94.20;;;;;;5059326;28;20166;-55
2023/06/17 01:54:10;;;;;;;13.05;10.52;;;10.70;94.20;;;;;;5072072;28;20612;-52
2023/06/17 01:56:36;;;;;;;12.82;9.15;;;10.70;94.40;;;;;;5062422;28;20070;-52
2023/06/17 01:59:02;;;;;;;12.20;10.35;;;10.80;93.90;;;;;;5050864;28;20119;-54
2023/06/17 02:01:27;;;;;;;10.52;8.38;;;10.70;94.10;;;;;;5052195;28;20178;-53
2023/06/17 02:03:53;;;;;;;14.15;10.65;;;10.80;95.20;;;;;;5051860;28;20021;-53
2023/06/17 02:06:19;;;;;;;13.85;11.02;;;10.90;95.70;;;;;;5051867;28;20096;-51
2023/06/17 02:08:45;;;;;;;15.52;9.52;;;10.90;96.40;;;;;;5061442;28;20101;-50
2023/06/17 02:11:10;;;;;;;11.40;10.23;;;10.90;95.70;;;;;;5071650;28;20036;-54
2023/06/17 02:13:36;;;;;;;12.52;9.98;;;10.80;95.50;;;;;;5072059;28;20025;-52
2023/06/17 02:16:02;;;;;;;11.48;10.23;;;10.80;96.60;;;;;;5071866;28;20020;-54
2023/06/17 02:18:28;;;;;;;14.27;10.27;;;10.80;97.80;;;;;;5071783;28;20025;-54
2023/06/17 02:20:53;;;;;;;13.63;9.25;;;10.80;98.30;;;;;;5067116;28;20437;-51
2023/06/17 02:23:19;;;;;;;10.40;9.30;;;10.80;97.20;;;;;;5051768;28;20027;-51
2023/06/17 02:25:45;;;;;;;16.90;10.70;;;10.80;97.40;;;;;;5061674;28;20036;-54
2023/06/17 02:28:10;;;;;;;12.43;11.15;;;10.80;97.30;;;;;;5071429;28;20060;-55
2023/06/17 02:30:36;;;;;;;11.70;9.85;;;10.80;98.10;;;;;;5071411;28;20029;-55
2023/06/17 02:33:01;;;;;;;12.82;10.77;;;10.80;97.80;;;;;;5070235;28;20479;-54
2023/06/17 02:35:27;;;;;;;12.50;10.20;;;10.80;97.60;;;;;;5071401;28;20035;-53
2023/06/17 02:37:54;;;;;;;15.35;10.75;;;10.80;98.20;;;;;;5071571;28;20033;-54
2023/06/17 02:40:19;;;;;;;12.95;9.52;;;10.80;98.10;;;;;;5063742;28;20637;-55
2023/06/17 02:42:45;;;;;;;14.05;9.50;;;10.90;97.40;;;;;;5058096;28;20116;-55
2023/06/17 02:45:12;;;;;;;10.20;9.20;;;10.80;97.30;;;;;;5056921;28;20029;-52
2023/06/17 02:47:38;;;;;;;17.98;9.93;;;10.90;95.70;;;;;;5071250;28;20434;-56
2023/06/17 02:50:06;;;;;;;15.40;10.50;;;10.80;95.10;;;;;;5051312;28;20352;-53
2023/06/17 02:52:34;;;;;;;13.27;8.95;;;10.80;95.40;;;;;;5052172;28;20033;-56
2023/06/17 02:54:59;;;;;;;10.93;9.23;;;10.80;95.60;;;;;;5056754;28;20047;-51
2023/06/17 02:57:25;;;;;;;16.65;9.77;;;10.80;94.40;;;;;;5055316;28;20053;-51
2023/06/17 02:59:51;;;;;;;24.90;11.15;;;10.80;95.00;;;;;;5055405;28;20025;-54
2023/06/17 03:02:17;;;;;;;9.73;8.68;;;10.80;96.10;;;;;;5073224;28;20036;-51
2023/06/17 03:04:43;;;;;;;13.85;9.25;;;10.70;95.40;;;;;;5075406;28;20024;-52
2023/06/17 03:07:11;;;;;;;10.35;8.45;;;10.70;94.90;;;;;;5075053;28;20403;-51
2023/06/17 03:09:37;;;;;;;16.05;8.65;;;10.70;95.20;;;;;;5073787;28;20492;-54
2023/06/17 03:12:03;;;;;;;10.27;9.18;;;10.70;93.90;;;;;;5066319;28;20103;-54
2023/06/17 03:14:29;;;;;;;9.32;8.18;;;10.60;93.60;;;;;;5075356;28;20167;-54
2023/06/17 03:16:58;;;;;;;10.23;7.93;;;10.50;93.60;;;;;;5073567;28;20579;-52
2023/06/17 03:19:25;;;;;;;12.85;9.40;;;10.50;92.90;;;;;;5075104;28;20044;-51
2023/06/17 03:21:51;;;;;;;11.45;8.77;;;10.40;93.00;;;;;;5073492;28;20024;-51
2023/06/17 03:24:17;;;;;;;15.23;9.40;;;10.40;94.80;;;;;;5073448;28;20028;-52
2023/06/17 03:26:44;;;;;;;13.75;9.43;;;10.30;94.60;;;;;;5061030;28;20016;-52
2023/06/17 03:29:10;;;;;;;13.02;8.98;;;10.40;95.10;;;;;;5054882;28;20375;-51
2023/06/17 03:31:36;;;;;;;9.93;8.43;;;10.40;95.50;;;;;;5069700;28;20039;-54
2023/06/17 03:34:02;;;;;;;18.63;9.10;;;10.40;95.30;;;;;;5074910;28;20593;-54
2023/06/17 03:36:29;;;;;;;10.57;8.20;;;10.40;93.90;;;;;;5060893;28;20037;-52
2023/06/17 03:38:58;;;;;;;10.95;8.73;;;10.40;93.70;;;;;;5054943;28;20032;-52
2023/06/17 03:41:24;;;;;;;14.60;8.15;;;10.40;93.10;;;;;;5058406;28;20060;-52
2023/06/17 03:43:50;;;;;;;13.52;9.30;;;10.40;92.70;;;;;;5073140;28;20474;-51
2023/06/17 03:46:16;;;;;;;11.65;7.20;;;10.40;93.10;;;;;;5056365;28;20037;-51
2023/06/17 03:48:42;;;;;;;13.15;8.07;;;10.40;91.50;;;;;;5054798;28;20025;-54
2023/06/17 03:51:08;;;;;;;9.65;8.65;;;10.40;91.50;;;;;;5054597;28;20037;-54
2023/06/17 03:53:34;;;;;;;13.68;7.82;;;10.40;93.60;;;;;;5066723;28;20029;-53
2023/06/17 03:55:59;;;;;;;13.60;9.05;;;10.30;92.30;;;;;;5054663;28;20035;-55
2023/06/17 03:58:25;;;;;;;12.55;9.75;;;10.50;94.20;;;;;;5064334;28;20047;-54
2023/06/17 04:00:51;;;;;;;9.82;8.73;;;10.50;95.10;;;;;;5074450;28;20051;-54
2023/06/17 04:03:25;;;;;;;12.77;9.75;;;10.60;96.70;;;;;;5073843;28;20066;-54
2023/06/17 04:05:51;;;;;;;23.33;10.10;;;10.70;96.90;;;;;;5074443;28;20032;-55
2023/06/17 04:08:18;;;;;;;19.15;10.18;;;10.70;96.70;;;;;;5074356;28;20356;-53
2023/06/17 04:10:47;;;;;;;14.07;9.85;;;10.80;97.10;;;;;;5062769;28;20123;-53
2023/06/17 04:13:12;;;;;;;14.48;9.43;;;10.90;97.40;;;;;;5054096;28;20025;-55
2023/06/17 04:15:38;;;;;;;9.82;8.25;;;11.00;97.10;;;;;;5054139;28;20033;-54
2023/06/17 04:18:03;;;;;;;20.92;10.48;;;11.00;96.70;;;;;;5054008;28;20104;-55
2023/06/17 04:20:29;;;;;;;9.60;8.60;;;11.10;95.40;;;;;;5060798;28;20025;-52
2023/06/17 04:22:55;;;;;;;11.23;10.02;;;11.10;95.90;;;;;;5073706;28;20040;-52
2023/06/17 04:25:22;;;;;;;16.88;10.07;;;11.20;95.20;;;;;;5071295;28;20757;-52
2023/06/17 04:27:49;;;;;;;12.27;9.52;;;11.20;96.30;;;;;;5054851;28;20009;-54
2023/06/17 04:30:15;;;;;;;17.55;10.18;;;11.30;96.30;;;;;;5069806;28;20025;-55
2023/06/17 04:32:42;;;;;;;13.65;10.73;;;11.30;97.30;;;;;;5073715;28;20035;-54
2023/06/17 04:35:18;;;;;;;11.85;10.63;;;11.30;96.90;;;;;;5072476;28;20036;-52
2023/06/17 04:37:53;;;;;;;19.83;11.13;;;11.40;97.50;;;;;;5073560;28;20086;-54
2023/06/17 04:40:23;;;;;;;15.07;10.73;;;11.40;98.10;;;;;;5073623;28;20035;-52
2023/06/17 04:42:49;;;;;;;13.80;10.85;;;11.60;98.00;;;;;;5071830;28;20437;-55
2023/06/17 04:45:17;;;;;;;16.50;10.65;;;11.60;97.70;;;;;;5073224;28;20102;-55
2023/06/17 04:47:44;;;;;;;12.13;10.27;;;11.80;97.20;;;;;;5054787;28;20049;-53
2023/06/17 04:50:12;;;;;;;13.25;9.85;;;11.90;97.20;;;;;;5052330;28;20112;-55
2023/06/17 04:52:42;;;;;;;17.98;10.10;;;12.10;95.50;;;;;;5054434;28;20129;-54
2023/06/17 04:55:11;;;;;;;13.73;9.52;;;12.10;96.10;;;;;;5053212;28;20075;-53
2023/06/17 04:57:37;;;;;;;15.43;9.18;;;12.30;94.20;;;;;;5053276;28;20507;-55
2023/06/17 05:00:05;;;;;;;12.35;11.02;;;12.40;95.00;;;;;;5053269;28;20094;-54
2023/06/17 05:02:31;;;;;;;13.75;9.82;;;12.50;93.50;;;;;;5053294;28;20112;-53
2023/06/17 05:04:56;;;;;;;12.85;10.02;;;12.80;88.30;;;;;;5053239;28;20103;-54
2023/06/17 05:07:22;;;;;;;11.85;9.95;;;12.80;79.50;;;;;;5053012;28;20523;-53
2023/06/17 05:09:47;;;;;;;13.45;10.23;;;12.90;79.40;;;;;;5059501;28;20059;-53
2023/06/17 05:12:13;;;;;;;12.48;10.20;;;13.00;79.40;;;;;;5054209;28;20025;-55
2023/06/17 05:14:39;;;;;;;14.50;9.77;;;13.10;78.30;;;;;;5072813;28;20048;-52
2023/06/17 05:17:04;;;;;;;12.02;9.50;;;13.10;82.30;;;;;;5072133;28;20070;-52
2023/06/17 05:19:30;;;;;;;10.82;9.02;;;13.30;84.20;;;;;;5070886;28;20542;-55
2023/06/17 05:21:56;;;;;;;13.95;10.48;;;13.40;77.80;;;;;;5072320;28;20077;-52
2023/06/17 05:24:21;;;;;;;11.15;9.07;;;13.50;73.50;;;;;;5070083;28;20028;-54
2023/06/17 05:26:47;;;;;;;12.63;9.23;;;13.70;58.20;;;;;;5054046;28;20066;-55
2023/06/17 05:29:12;;;;;;;14.27;9.20;;;13.80;63.00;;;;;;5070184;28;20033;-55
2023/06/17 05:31:38;;;;;;;10.23;8.98;;;13.80;54.90;;;;;;5072689;28;20396;-53
2023/06/17 05:34:04;;;;;;;14.27;10.48;;;13.80;58.20;;;;;;5055728;28;20025;-51
2023/06/17 05:36:29;;;;;;;10.85;9.00;;;13.80;57.30;;;;;;5052568;28;20040;-54
2023/06/17 05:38:55;;;;;;;11.18;9.88;;;13.80;63.90;;;;;;5067862;28;20081;-54
2023/06/17 05:41:21;;;;;;;10.52;9.43;;;13.80;61.90;;;;;;5070961;28;20028;-52
2023/06/17 05:43:48;;;;;;;10.00;8.88;;;13.80;63.00;;;;;;5058076;28;20048;-54
2023/06/17 05:46:14;;;;;;;11.45;10.07;;;13.90;60.10;;;;;;5052303;28;20021;-51
2023/06/17 05:48:40;;;;;;;11.18;9.40;;;13.90;61.00;;;;;;5053412;28;20033;-55
2023/06/17 05:51:05;;;;;;;16.17;10.10;;;13.80;62.60;;;;;;5063440;28;20021;-51
2023/06/17 05:53:31;;;;;;;11.25;9.30;;;13.80;61.60;;;;;;5052282;28;20456;-52
2023/06/17 05:55:56;;;;;;;9.85;8.77;;;14.00;62.80;;;;;;5064095;28;20112;-54
2023/06/17 05:58:22;;;;;;;15.55;9.02;;;14.00;59.10;;;;;;5071836;28;20040;-55
2023/06/17 06:00:48;;;;;;;19.67;9.68;;;14.10;63.30;;;;;;5072106;28;20036;-53
2023/06/17 06:03:15;;;;;;;11.30;10.18;;;14.10;67.20;;;;;;5071964;28;20052;-52
2023/06/17 06:05:40;;;;;;;12.50;8.05;;;14.20;70.70;;;;;;5071853;28;20078;-51
2023/06/17 06:08:06;;;;;;;12.73;8.85;;;14.40;59.60;;;;;;5060241;28;20025;-53
2023/06/17 06:10:32;;;;;;;9.50;8.15;;;14.60;45.70;;;;;;5050701;28;20025;-54
2023/06/17 06:12:59;;;;;;;9.40;8.35;;;14.70;25.50;;;;;;5052129;28;20381;-51
2023/06/17 06:15:25;;;;;;;9.98;8.13;;;14.80;37.20;;;;;;5051777;28;20033;-52
2023/06/17 06:17:51;;;;;;;9.98;8.10;;;15.00;39.70;;;;;;5051767;28;20029;-56
2023/06/17 06:20:17;;;;;;;11.07;9.00;;;15.00;20.40;;;;;;5065623;28;20111;-57
2023/06/17 06:22:43;;;;;;;9.25;8.32;;;15.10;26.10;;;;;;5054185;28;20036;-54
2023/06/17 06:25:09;;;;;;;9.43;8.07;;;15.20;25.00;;;;;;5057465;28;20052;-57
2023/06/17 06:27:35;;;;;;;9.52;7.63;;;15.30;14.60;;;;;;5064763;28;20025;-55
2023/06/17 06:30:00;;;;;;;13.07;8.35;;;15.50;13.00;;;;;;5051735;28;20086;-58
2023/06/17 06:32:26;;;;;;;9.80;8.32;;;15.60;16.30;;;;;;5051584;28;20024;-56
2023/06/17 06:34:52;;;;;;;10.52;7.05;;;15.70;12.30;;;;;;5051686;28;20071;-56
2023/06/17 06:37:17;;;;;;;9.45;7.68;;;15.80;18.90;;;;;;5050064;28;20028;-54
2023/06/17 06:39:43;;;;;;;9.82;6.75;;;16.00;16.30;;;;;;5056454;28;20037;-57
2023/06/17 06:42:10;;;;;;;9.02;6.90;;;16.10;1.00;;;;;;5051157;28;20025;-57
2023/06/17 06:44:36;;;;;;;9.98;7.63;;;16.20;1.00;;;;;;5050991;28;20025;-56
2023/06/17 06:47:02;;;;;;;11.75;7.07;;;16.30;1.00;;;;;;5050584;28;20025;-55
2023/06/17 06:49:28;;;;;;;8.05;6.25;;;16.50;1.00;;;;;;5052390;28;20132;-54
2023/06/17 06:51:53;;;;;;;11.80;6.63;;;16.60;1.00;;;;;;5070728;28;20028;-55
2023/06/17 06:54:19;;;;;;;10.30;6.80;;;16.70;1.00;;;;;;5069061;28;20032;-57
2023/06/17 06:56:45;;;;;;;7.85;7.05;;;16.70;1.00;;;;;;5069663;28;20041;-54
2023/06/17 06:59:10;;;;;;;10.65;7.35;;;17.00;1.00;;;;;;5069771;28;20040;-54
2023/06/17 07:01:36;;;;;;;9.38;6.40;;;17.20;1.00;;;;;;5067924;28;20025;-55
2023/06/17 07:04:02;;;;;;;7.40;6.70;;;17.30;1.00;;;;;;5068592;28;20309;-54
2023/06/17 07:06:27;;;;;;;8.38;6.80;;;17.50;1.00;;;;;;5067406;28;20026;-55
2023/06/17 07:08:53;;;;;;;7.82;6.43;;;17.60;1.00;;;;;;5068492;28;20027;-55
2023/06/17 07:11:18;;;;;;;8.40;6.75;;;17.70;1.00;;;;;;5069670;28;20024;-54
2023/06/17 07:13:44;;;;;;;11.77;7.68;;;17.80;99.90;;;;;;5069550;28;20526;-56
2023/06/17 07:16:10;;;;;;;8.10;6.90;;;17.90;1.00;;;;;;5057748;28;20036;-52
2023/06/17 07:18:35;;;;;;;13.13;7.60;;;18.10;1.00;;;;;;5069565;28;20013;-55
2023/06/17 07:21:01;;;;;;;8.50;6.93;;;18.20;99.90;;;;;;5064865;28;20025;-55
2023/06/17 07:23:27;;;;;;;9.30;6.65;;;18.40;1.00;;;;;;5049586;28;20079;-53
2023/06/17 07:25:52;;;;;;;7.72;6.93;;;18.40;99.90;;;;;;5049838;28;20047;-52
2023/06/17 07:28:18;;;;;;;10.75;7.63;;;18.50;99.90;;;;;;5049620;28;20098;-55
2023/06/17 07:30:44;;;;;;;7.60;6.78;;;18.60;99.90;;;;;;5050176;28;20537;-53
2023/06/17 07:33:10;;;;;;;7.85;7.03;;;18.70;40.60;;;;;;5049647;28;20079;-52
2023/06/17 07:35:35;;;;;;;16.88;6.55;;;18.80;1.00;;;;;;5049780;28;20061;-55
2023/06/17 07:38:01;;;;;;;7.63;6.82;;;18.90;99.90;;;;;;5051029;28;20031;-53
2023/06/17 07:40:26;;;;;;;8.23;6.47;;;19.10;99.90;;;;;;5055262;28;20108;-53
2023/06/17 07:42:52;;;;;;;6.85;5.88;;;19.20;99.90;;;;;;5054687;28;20032;-53
2023/06/17 07:45:18;;;;;;;12.73;5.80;;;19.40;1.00;;;;;;5054550;28;20029;-54
2023/06/17 07:47:43;;;;;;;9.10;6.53;;;19.50;99.90;;;;;;5054640;28;20033;-50
2023/06/17 07:50:10;;;;;;;7.95;5.10;;;19.60;99.90;;;;;;5053320;28;20017;-53
2023/06/17 07:52:36;;;;;;;11.07;6.70;;;19.70;1.00;;;;;;5057372;28;20033;-53
2023/06/17 07:55:03;;;;;;;15.45;5.80;;;19.80;1.00;;;;;;5063654;28;20070;-52
2023/06/17 07:57:28;;;;;;;6.70;5.57;;;19.90;99.90;;;;;;5054320;28;20068;-55
2023/06/17 07:59:54;;;;;;;8.93;5.95;;;20.20;1.00;;;;;;5071843;28;20052;-53
2023/06/17 08:02:21;;;;;;;6.53;5.45;;;20.00;99.90;;;;;;5074213;28;20073;-53
2023/06/17 08:04:47;;;;;;;10.13;5.95;;;20.30;99.90;;;;;;5074414;28;20495;-55
2023/06/17 08:07:13;;;;;;;7.57;5.32;;;20.40;46.30;;;;;;5074134;28;20025;-55
2023/06/17 08:09:39;;;;;;;8.90;6.05;;;20.60;1.00;;;;;;5074318;28;20024;-57
2023/06/17 08:12:05;;;;;;;9.90;5.15;;;20.70;1.00;;;;;;5055995;28;20024;-54
2023/06/17 08:14:31;;;;;;;10.35;5.57;;;20.70;99.90;;;;;;5053588;28;20044;-55
2023/06/17 08:16:57;;;;;;;8.52;5.50;;;20.80;99.90;;;;;;5053794;28;20033;-56
2023/06/17 08:19:23;;;;;;;6.68;5.57;;;20.90;99.90;;;;;;5053380;28;20380;-55
2023/06/17 08:21:49;;;;;;;12.55;5.78;;;21.00;99.90;;;;;;5058460;28;20043;-56
2023/06/17 08:24:23;;;;;;;9.38;5.68;;;21.40;99.90;;;;;;5071189;28;20028;-55
2023/06/17 08:26:49;;;;;;;10.35;5.45;;;21.40;99.90;;;;;;5062504;28;20701;-56
2023/06/17 08:29:15;;;;;;;10.38;5.93;;;21.60;99.90;;;;;;5052740;28;20037;-54
2023/06/17 08:31:46;;;;;;;7.85;5.20;;;21.40;99.90;;;;;;5051198;28;20464;-53
2023/06/17 08:34:13;;;;;;;9.65;5.63;;;21.80;99.90;;;;;;5054970;28;20036;-55
2023/06/17 08:36:43;;;;;;;13.88;6.15;;;21.80;99.90;;;;;;5058835;28;20096;-57
2023/06/17 08:39:10;;;;;;;5.88;5.03;;;21.90;99.90;;;;;;5070445;28;20024;-56
2023/06/17 08:41:41;;;;;;;6.30;4.90;;;22.10;99.90;;;;;;5067381;28;20031;-53
2023/06/17 08:44:09;;;;;;;9.02;5.85;;;21.90;99.90;;;;;;5072734;28;20025;-55
2023/06/17 08:46:36;;;;;;;8.90;5.18;;;22.10;82.60;;;;;;5061747;28;20074;-56
2023/06/17 08:49:03;;;;;;;14.85;5.78;;;22.30;90.70;;;;;;5053556;28;20108;-54
2023/06/17 08:51:29;;;;;;;13.52;6.22;;;22.30;89.80;;;;;;5052282;28;20025;-56
2023/06/17 08:53:56;;;;;;;11.90;6.20;;;22.20;26.50;;;;;;5054601;28;20032;-54
2023/06/17 08:56:22;;;;;;;9.30;5.65;;;22.40;1.00;;;;;;5059627;28;20024;-54
2023/06/17 08:58:49;;;;;;;7.35;5.80;;;22.40;1.00;;;;;;5059643;28;20075;-55
2023/06/17 09:01:17;;;;;;;9.23;5.20;;;22.30;1.00;;;;;;5064632;28;20079;-55
2023/06/17 09:03:43;;;;;;;8.95;4.57;;;22.20;1.00;;;;;;5072022;28;20054;-55
2023/06/17 09:06:26;;;;;;;10.45;5.88;;;22.20;1.00;;;;;;5072744;28;20419;-55
2023/06/17 09:08:53;;;;;;;10.27;4.88;;;22.20;1.00;;;;;;5071736;28;20074;-55
2023/06/17 09:11:30;;;;;;;10.63;5.35;;;22.30;1.00;;;;;;5072771;28;20498;-55
2023/06/17 09:13:58;;;;;;;12.25;5.18;;;22.40;1.00;;;;;;5071199;28;20479;-54
2023/06/17 09:16:29;;;;;;;8.98;4.75;;;22.10;1.00;;;;;;5070987;28;20074;-52
2023/06/17 09:18:57;;;;;;;9.35;4.75;;;22.20;1.00;;;;;;5070960;28;20489;-56
2023/06/17 09:21:24;;;;;;;8.02;5.63;;;22.60;1.00;;;;;;5068186;28;20401;-56
2023/06/17 09:23:54;;;;;;;15.88;5.07;;;22.70;1.00;;;;;;5051627;28;20025;-56
2023/06/17 09:26:24;;;;;;;6.53;5.60;;;22.70;1.00;;;;;;5051338;28;20028;-57
2023/06/17 09:28:50;;;;;;;8.80;4.90;;;22.90;1.00;;;;;;5051525;28;20021;-54
2023/06/17 09:31:18;;;;;;;9.82;4.82;;;23.10;1.00;;;;;;5052452;28;20472;-57
2023/06/17 09:33:44;;;;;;;9.68;5.45;;;23.40;1.00;;;;;;5056967;28;20031;-56
2023/06/17 09:36:10;;;;;;;11.07;5.28;;;23.50;1.00;;;;;;5072035;28;20589;-56
2023/06/17 09:38:39;;;;;;;7.05;4.55;;;23.30;1.00;;;;;;5070884;28;20055;-56
2023/06/17 09:41:06;;;;;;;8.48;5.07;;;23.70;1.00;;;;;;5071261;28;20027;-55
2023/06/17 09:43:32;;;;;;;12.15;5.47;;;24.10;1.00;;;;;;5071621;28;20057;-56
2023/06/17 09:45:59;;;;;;;12.38;4.90;;;23.90;1.00;;;;;;5079580;28;20067;-58
2023/06/17 09:48:37;;;;;;;10.48;5.35;;;23.90;1.00;;;;;;5071247;28;20092;-56
2023/06/17 09:51:05;;;;;;;6.28;5.00;;;23.60;1.00;;;;;;5070482;28;20024;-56
2023/06/17 09:53:31;;;;;;;13.93;4.93;;;23.70;1.00;;;;;;5055968;28;20032;-55
2023/06/17 09:55:58;;;;;;;8.60;4.72;;;24.10;1.00;;;;;;5055267;28;20029;-51
2023/06/17 09:58:29;;;;;;;11.77;5.40;;;24.50;99.90;;;;;;5071466;28;20040;-55
2023/06/17 10:00:56;;;;;;;15.25;5.50;;;24.20;99.90;;;;;;5071466;28;20048;-51
2023/06/17 10:03:22;;;;;;;14.95;5.70;;;24.50;99.90;;;;;;5070238;28;20036;-56
2023/06/17 10:06:05;;;;;;;12.38;5.22;;;24.50;99.90;;;;;;5070148;28;20024;-53
2023/06/17 10:08:34;;;;;;;10.30;5.00;;;24.70;99.90;;;;;;5070247;28;20360;-55
2023/06/17 10:11:00;;;;;;;5.85;5.25;;;24.90;99.90;;;;;;5069564;28;20020;-54
2023/06/17 10:13:27;;;;;;;11.32;5.15;;;24.50;99.90;;;;;;5048472;28;20036;-55
2023/06/17 10:15:55;;;;;;;9.18;4.75;;;24.70;99.90;;;;;;5042459;28;20029;-54
2023/06/17 10:18:23;;;;;;;8.57;4.80;;;25.00;99.90;;;;;;5040259;28;20124;-55
2023/06/17 10:20:50;;;;;;;8.38;6.07;;;25.10;99.90;;;;;;5040748;28;20024;-54
2023/06/17 10:23:18;;;;;;;8.30;4.75;;;25.00;99.90;;;;;;5039718;28;20083;-56
2023/06/17 10:25:45;;;;;;;10.75;5.60;;;25.10;99.90;;;;;;5044571;28;20159;-52
2023/06/17 10:28:13;;;;;;;7.60;5.45;;;25.40;99.90;;;;;;5039759;28;20032;-54
2023/06/17 10:30:43;;;;;;;10.27;4.72;;;25.20;99.90;;;;;;5053232;28;20036;-55
2023/06/17 10:33:09;;;;;;;9.80;5.95;;;24.80;99.90;;;;;;5058803;28;20036;-56
2023/06/17 10:35:44;;;;;;;16.13;5.45;;;24.40;99.90;;;;;;5039976;28;20029;-53
2023/06/17 10:38:26;;;;;;;14.10;4.97;;;24.10;99.90;;;;;;5039659;28;20120;-52
2023/06/17 10:40:52;;;;;;;6.75;4.60;;;24.20;99.90;;;;;;5039872;28;20032;-54
2023/06/17 10:43:21;;;;;;;13.80;5.00;;;24.30;99.90;;;;;;5039951;28;20102;-54
2023/06/17 10:45:56;;;;;;;7.63;4.72;;;24.30;99.90;;;;;;5041509;28;20029;-53
2023/06/17 10:48:30;;;;;;;9.73;5.22;;;23.70;99.90;;;;;;5041015;28;20036;-56
2023/06/17 10:51:18;;;;;;;11.15;5.93;;;23.70;99.90;;;;;;5040414;28;20029;-57
2023/06/17 10:53:49;;;;;;;11.73;5.07;;;23.90;99.90;;;;;;5041071;28;20468;-56
2023/06/17 10:56:15;;;;;;;13.10;6.05;;;23.80;99.90;;;;;;5040833;28;20039;-55
2023/06/17 10:58:47;;;;;;;8.57;5.28;;;23.50;99.90;;;;;;5040476;28;20045;-55
2023/06/17 11:01:14;;;;;;;9.30;5.53;;;23.80;99.90;;;;;;5040033;28;20383;-54
2023/06/17 11:04:14;;;;;;;8.30;5.07;;;23.60;99.90;;;;;;5040899;28;20041;-55
2023/06/17 11:06:43;;;;;;;7.93;6.03;;;23.40;99.90;;;;;;5039115;28;20026;-55
2023/06/17 11:09:09;;;;;;;9.10;6.03;;;23.50;99.90;;;;;;5039831;28;20049;-54
2023/06/17 11:11:35;;;;;;;9.18;6.10;;;23.60;99.90;;;;;;5036234;28;20126;-55
2023/06/17 11:14:00;;;;;;;12.20;5.57;;;23.60;99.90;;;;;;5041946;28;20040;-56
2023/06/17 11:16:28;;;;;;;10.13;6.22;;;23.40;99.90;;;;;;5042023;28;20160;-56
2023/06/17 11:18:53;;;;;;;11.38;5.97;;;22.90;99.90;;;;;;5044094;28;20349;-56
2023/06/17 11:21:19;;;;;;;15.18;6.28;;;22.90;1.00;;;;;;5045038;28;20029;-56
2023/06/17 11:23:45;;;;;;;9.13;6.15;;;22.60;99.90;;;;;;5044583;28;20388;-57
2023/06/17 11:26:11;;;;;;;11.40;7.18;;;22.40;99.90;;;;;;5043151;28;20036;-56
2023/06/17 11:28:39;;;;;;;16.17;7.38;;;22.30;1.00;;;;;;5042773;28;20119;-56
2023/06/17 11:31:05;;;;;;;10.93;7.03;;;22.50;1.00;;;;;;5043449;28;20532;-55
2023/06/17 11:33:32;;;;;;;10.20;5.85;;;23.00;1.00;;;;;;5043311;28;20456;-53
2023/06/17 11:35:58;;;;;;;12.15;6.72;;;23.80;99.90;;;;;;5043964;28;20033;-53
2023/06/17 11:38:26;;;;;;;8.70;6.75;;;24.60;99.90;;;;;;5041401;28;20036;-55
2023/06/17 11:40:56;;;;;;;7.60;6.00;;;24.90;99.90;;;;;;5045088;28;20040;-54
2023/06/17 11:43:26;;;;;;;8.82;6.93;;;24.80;99.90;;;;;;5045117;28;20033;-57
2023/06/17 11:45:58;;;;;;;9.45;6.55;;;25.10;99.90;;;;;;5043388;28;20025;-55
2023/06/17 11:48:28;;;;;;;7.18;5.80;;;25.80;99.90;;;;;;5042876;28;20089;-55
2023/06/17 11:50:56;;;;;;;10.85;6.60;;;26.30;99.90;;;;;;5043448;28;20060;-55
2023/06/17 11:53:36;;;;;;;10.50;8.95;;;25.10;99.90;;;;;;5043769;28;20036;-55
2023/06/17 11:56:06;;;;;;;12.30;7.30;;;24.20;99.90;;;;;;5046183;28;20044;-53
2023/06/17 11:58:38;;;;;;;9.45;6.03;;;23.30;99.90;;;;;;5062894;28;20127;-53
2023/06/17 12:01:04;;;;;;;10.38;5.95;;;22.90;99.90;;;;;;5061915;28;20033;-54
2023/06/17 12:03:30;;;;;;;8.35;4.90;;;22.00;99.90;;;;;;5062954;28;20101;-52
2023/06/17 12:05:59;;;;;;;9.02;4.38;;;21.50;99.90;;;;;;5043635;28;20382;-53
2023/06/17 12:08:35;;;;;;;5.50;4.80;;;21.30;99.90;;;;;;5051030;28;20028;-52
2023/06/17 12:11:06;;;;;;;9.93;4.43;;;20.80;99.90;;;;;;5045012;28;20036;-55
2023/06/17 12:13:39;;;;;;;10.73;4.78;;;20.20;99.90;;;;;;5043603;28;20025;-52
2023/06/17 12:16:10;;;;;;;5.93;4.38;;;20.00;1.00;;;;;;5044382;28;22333;-51
2023/06/17 12:18:36;;;;;;;13.40;5.00;;;20.00;1.00;;;;;;5042653;28;20476;-55
2023/06/17 12:21:09;;;;;;;12.80;5.97;;;19.80;1.00;;;;;;5043557;28;20032;-55
2023/06/17 12:23:35;;;;;;;15.25;6.95;;;19.70;1.00;;;;;;5043224;28;20041;-57
2023/06/17 12:26:01;;;;;;;9.23;5.40;;;19.50;99.90;;;;;;5043080;28;20103;-55
2023/06/17 12:28:27;;;;;;;8.75;5.88;;;19.30;91.80;;;;;;5043582;28;20115;-56
2023/06/17 12:30:52;;;;;;;7.47;5.65;;;19.10;1.00;;;;;;5042967;28;20061;-55
2023/06/17 12:33:18;;;;;;;10.55;5.32;;;19.50;99.90;;;;;;5043965;28;20464;-56
2023/06/17 12:35:44;;;;;;;6.65;4.97;;;19.70;99.90;;;;;;5042986;28;20029;-54
2023/06/17 12:38:09;;;;;;;5.57;5.07;;;19.90;99.90;;;;;;5043503;28;20041;-52
2023/06/17 12:40:35;;;;;;;8.27;5.20;;;20.40;87.80;;;;;;5042230;28;21139;-52